Time;durP1;ratioP1;P1;durP2;ratioP2;P2;SDS_P1;SDS_P2;PMS_P1;PMS_P2;Temp;Humidity;BMP_temperature;BMP_pressure;BME280_temperature;BME280_humidity;BME280_pressure;Samples;Min_cycle;Max_cycle;Signal;HPM_P1;HPM_P2
2021/12/09 00:02:02;;;;;;;;;;;19.50;36.40;;;;;;5156415;27;19911;-55
2021/12/09 00:04:30;;;;;;;;;;;19.50;36.30;;;;;;5156914;27;19907;-55
2021/12/09 00:06:56;;;;;;;;;;;19.50;36.30;;;;;;5156744;27;20408;-51
2021/12/09 00:09:22;;;;;;;;;;;19.50;36.40;;;;;;5156954;27;20002;-50
2021/12/09 00:11:49;;;;;;;;;;;19.50;36.30;;;;;;5156614;27;19915;-55
2021/12/09 00:14:17;;;;;;;;;;;19.50;36.30;;;;;;5156548;27;19907;-55
2021/12/09 00:16:43;;;;;;;;;;;19.40;36.30;;;;;;5156675;27;19930;-54
2021/12/09 00:19:09;;;;;;;;;;;19.40;36.30;;;;;;5156370;27;20350;-53
2021/12/09 00:21:34;;;;;;;;;;;19.40;36.30;;;;;;5156712;27;20407;-53
2021/12/09 00:24:00;;;;;;;;;;;19.40;36.30;;;;;;5156453;27;19907;-56
2021/12/09 00:26:25;;;;;;;;;;;19.40;36.30;;;;;;5156642;27;20400;-56
2021/12/09 00:28:51;;;;;;;;;;;19.40;36.20;;;;;;5156240;27;19907;-56
2021/12/09 00:31:18;;;;;;;;;;;19.40;36.30;;;;;;5156196;27;19915;-57
2021/12/09 00:33:45;;;;;;;;;;;19.40;36.20;;;;;;5156410;27;19907;-56
2021/12/09 00:36:12;;;;;;;;;;;19.40;36.30;;;;;;5156459;27;19914;-57
2021/12/09 00:38:40;;;;;;;;;;;19.30;36.20;;;;;;5156393;27;19907;-53
2021/12/09 00:41:07;;;;;;;;;;;19.40;36.30;;;;;;5156393;27;19960;-55
2021/12/09 00:43:33;;;;;;;;;;;19.40;36.30;;;;;;5155849;27;19911;-56
2021/12/09 00:45:58;;;;;;;;;;;19.30;36.30;;;;;;5156249;27;19951;-54
2021/12/09 00:48:25;;;;;;;;;;;19.30;36.30;;;;;;5156253;27;19915;-56
2021/12/09 00:50:51;;;;;;;;;;;19.30;36.20;;;;;;5156124;27;19915;-56
2021/12/09 00:53:17;;;;;;;;;;;19.30;36.20;;;;;;5155850;27;19914;-56
2021/12/09 00:55:42;;;;;;;;;;;19.30;36.20;;;;;;5156204;27;19914;-52
2021/12/09 00:58:08;;;;;;;;;;;19.30;36.20;;;;;;5155573;27;19908;-57
2021/12/09 01:00:33;;;;;;;;;;;19.30;36.20;;;;;;5158065;27;19921;-56
2021/12/09 01:02:59;;;;;;;;;;;19.30;36.20;;;;;;5156352;27;19912;-57
2021/12/09 01:05:25;;;;;;;;;;;19.30;36.20;;;;;;5155874;27;19908;-57
2021/12/09 01:07:50;;;;;;;;;;;19.30;36.20;;;;;;5155808;27;19908;-53
2021/12/09 01:10:16;;;;;;;;;;;19.30;36.20;;;;;;5155782;27;19956;-56
2021/12/09 01:12:41;;;;;;;;;;;19.30;36.10;;;;;;5155484;27;19960;-55
2021/12/09 01:15:08;;;;;;;;;;;19.30;36.20;;;;;;5155403;27;20013;-53
2021/12/09 01:17:33;;;;;;;;;;;19.30;36.20;;;;;;5155549;27;19914;-51
2021/12/09 01:19:59;;;;;;;;;;;19.30;36.10;;;;;;5155370;27;19907;-57
2021/12/09 01:22:32;;;;;;;;;;;19.20;36.10;;;;;;5155372;27;20384;-57
2021/12/09 01:24:58;;;;;;;;;;;19.20;36.20;;;;;;5155391;27;19907;-57
2021/12/09 01:27:23;;;;;;;;;;;19.20;36.10;;;;;;5155175;27;20270;-58
2021/12/09 01:29:53;;;;;;;;;;;19.20;36.20;;;;;;5155379;27;19907;-55
2021/12/09 01:32:26;;;;;;;;;;;19.20;36.20;;;;;;5155419;27;19914;-57
2021/12/09 01:34:51;;;;;;;;;;;19.20;36.20;;;;;;5155527;27;19998;-51
2021/12/09 01:37:16;;;;;;;;;;;19.20;36.20;;;;;;5155158;27;19951;-57
2021/12/09 01:39:43;;;;;;;;;;;19.20;36.20;;;;;;5155118;27;19951;-57
2021/12/09 01:42:09;;;;;;;;;;;19.20;36.10;;;;;;5155001;27;20369;-53
2021/12/09 01:44:34;;;;;;;;;;;19.20;36.10;;;;;;5155289;27;19915;-53
2021/12/09 01:47:00;;;;;;;;;;;19.20;36.10;;;;;;5155258;27;19907;-54
2021/12/09 01:49:25;;;;;;;;;;;19.10;36.10;;;;;;5155004;27;19907;-53
2021/12/09 01:51:51;;;;;;;;;;;19.20;36.10;;;;;;5136398;27;19940;-54
2021/12/09 01:54:16;;;;;;;;;;;19.20;36.10;;;;;;5154934;27;19960;-54
2021/12/09 01:56:42;;;;;;;;;;;19.20;36.10;;;;;;5155294;27;19911;-55
2021/12/09 01:59:08;;;;;;;;;;;19.10;36.10;;;;;;5154694;27;19971;-55
2021/12/09 02:01:34;;;;;;;;;;;19.10;36.10;;;;;;5154911;27;19907;-56
2021/12/09 02:04:00;;;;;;;;;;;19.10;36.10;;;;;;5154658;27;20394;-54
2021/12/09 02:06:26;;;;;;;;;;;19.20;36.20;;;;;;5155070;27;19915;-55
2021/12/09 02:08:51;;;;;;;;;;;19.10;36.10;;;;;;5154668;27;20298;-55
2021/12/09 02:11:17;;;;;;;;;;;19.10;36.10;;;;;;5154959;27;19915;-53
2021/12/09 02:13:42;;;;;;;;;;;19.10;36.00;;;;;;5154923;27;20276;-55
2021/12/09 02:16:09;;;;;;;;;;;19.10;36.10;;;;;;5154641;27;19908;-56
2021/12/09 02:18:34;;;;;;;;;;;19.10;36.10;;;;;;5154925;27;20010;-56
2021/12/09 02:21:06;;;;;;;;;;;19.10;36.10;;;;;;5154928;27;19943;-56
2021/12/09 02:23:32;;;;;;;;;;;19.10;36.10;;;;;;5155330;27;20002;-55
2021/12/09 02:25:57;;;;;;;;;;;19.10;36.10;;;;;;5158854;27;19946;-56
2021/12/09 02:28:25;;;;;;;;;;;19.10;36.00;;;;;;5158945;27;20410;-51
2021/12/09 02:30:50;;;;;;;;;;;19.10;36.10;;;;;;5158577;27;20300;-50
2021/12/09 02:33:16;;;;;;;;;;;19.10;36.00;;;;;;5158406;27;19907;-49
2021/12/09 02:35:41;;;;;;;;;;;19.10;36.00;;;;;;5158656;27;19911;-56
2021/12/09 02:38:08;;;;;;;;;;;19.00;36.00;;;;;;5158566;27;20009;-55
2021/12/09 02:40:34;;;;;;;;;;;19.00;36.10;;;;;;5158555;27;19907;-52
2021/12/09 02:43:00;;;;;;;;;;;19.10;36.00;;;;;;5158234;27;20342;-54
2021/12/09 02:45:25;;;;;;;;;;;19.00;36.00;;;;;;5158156;27;19911;-55
2021/12/09 02:47:51;;;;;;;;;;;19.00;36.00;;;;;;5158274;27;19907;-56
2021/12/09 02:50:16;;;;;;;;;;;19.00;36.00;;;;;;5158381;27;19913;-54
2021/12/09 02:52:42;;;;;;;;;;;19.00;36.00;;;;;;5158389;27;19911;-55
2021/12/09 02:55:07;;;;;;;;;;;19.00;36.00;;;;;;5158283;27;19907;-53
2021/12/09 02:57:33;;;;;;;;;;;19.00;36.00;;;;;;5157846;27;19913;-55
2021/12/09 02:59:58;;;;;;;;;;;19.00;36.00;;;;;;5157867;27;19920;-53
2021/12/09 03:02:24;;;;;;;;;;;19.00;36.00;;;;;;5158120;27;19952;-55
2021/12/09 03:04:51;;;;;;;;;;;19.00;36.00;;;;;;5158131;27;19959;-56
2021/12/09 03:07:23;;;;;;;;;;;19.00;36.00;;;;;;5157848;27;19907;-52
2021/12/09 03:09:52;;;;;;;;;;;19.00;36.00;;;;;;5158059;27;19913;-49
2021/12/09 03:12:19;;;;;;;;;;;19.00;36.00;;;;;;5157929;27;19911;-52
2021/12/09 03:14:45;;;;;;;;;;;19.00;36.00;;;;;;5157920;27;20002;-51
2021/12/09 03:17:10;;;;;;;;;;;19.00;36.00;;;;;;5157693;27;19943;-55
2021/12/09 03:19:36;;;;;;;;;;;19.00;36.00;;;;;;5157470;27;19907;-54
2021/12/09 03:22:01;;;;;;;;;;;19.00;36.00;;;;;;5157769;27;19977;-55
2021/12/09 03:24:27;;;;;;;;;;;19.00;36.00;;;;;;5157670;27;19955;-49
2021/12/09 03:26:54;;;;;;;;;;;19.00;36.00;;;;;;5157532;27;19911;-53
2021/12/09 03:29:21;;;;;;;;;;;19.00;36.00;;;;;;5157470;27;19993;-50
2021/12/09 03:31:48;;;;;;;;;;;19.00;36.00;;;;;;5157457;27;20297;-55
2021/12/09 03:34:14;;;;;;;;;;;19.00;36.00;;;;;;5157630;27;19907;-50
2021/12/09 03:36:40;;;;;;;;;;;19.00;36.00;;;;;;5155971;27;19967;-50
2021/12/09 03:39:09;;;;;;;;;;;19.00;35.90;;;;;;5157072;27;19932;-53
2021/12/09 03:41:34;;;;;;;;;;;18.90;36.00;;;;;;5157275;27;19907;-54
2021/12/09 03:44:00;;;;;;;;;;;19.00;36.00;;;;;;5157235;27;19914;-55
2021/12/09 03:46:25;;;;;;;;;;;18.90;36.00;;;;;;5157203;27;19990;-53
2021/12/09 03:48:51;;;;;;;;;;;18.90;36.00;;;;;;5156894;27;19915;-52
2021/12/09 03:51:16;;;;;;;;;;;19.00;36.00;;;;;;5156830;27;19915;-51
2021/12/09 03:53:42;;;;;;;;;;;18.90;36.00;;;;;;5157205;27;19911;-56
2021/12/09 03:56:07;;;;;;;;;;;18.90;35.90;;;;;;5157041;27;19914;-53
2021/12/09 03:58:33;;;;;;;;;;;18.90;35.90;;;;;;5156782;27;20393;-54
2021/12/09 04:00:58;;;;;;;;;;;18.90;36.00;;;;;;5156902;27;20431;-54
2021/12/09 04:03:24;;;;;;;;;;;18.90;36.00;;;;;;5156779;27;19908;-55
2021/12/09 04:05:50;;;;;;;;;;;18.90;36.00;;;;;;5156606;27;19907;-49
2021/12/09 04:08:16;;;;;;;;;;;18.90;36.00;;;;;;5156949;27;20002;-49
2021/12/09 04:10:42;;;;;;;;;;;18.90;35.90;;;;;;5156753;27;19915;-55
2021/12/09 04:13:08;;;;;;;;;;;18.90;35.90;;;;;;5156605;27;19975;-59
2021/12/09 04:15:34;;;;;;;;;;;18.90;35.90;;;;;;5156801;27;19914;-50
2021/12/09 04:17:59;;;;;;;;;;;18.90;35.90;;;;;;5156504;27;20258;-50
2021/12/09 04:20:25;;;;;;;;;;;18.90;35.90;;;;;;5156444;27;19907;-55
2021/12/09 04:22:50;;;;;;;;;;;18.90;35.90;;;;;;5156358;27;19915;-54
2021/12/09 04:25:17;;;;;;;;;;;18.90;35.90;;;;;;5137824;27;19907;-51
2021/12/09 04:27:42;;;;;;;;;;;18.90;35.90;;;;;;5156578;27;19950;-55
2021/12/09 04:30:08;;;;;;;;;;;18.90;35.90;;;;;;5156421;27;19951;-56
2021/12/09 04:32:33;;;;;;;;;;;18.90;35.90;;;;;;5156134;27;20010;-56
2021/12/09 04:34:59;;;;;;;;;;;18.80;35.90;;;;;;5156406;27;19907;-52
2021/12/09 04:37:24;;;;;;;;;;;18.80;35.90;;;;;;5156155;27;19942;-55
2021/12/09 04:39:50;;;;;;;;;;;18.80;35.90;;;;;;5156180;27;19916;-54
2021/12/09 04:42:15;;;;;;;;;;;18.80;35.90;;;;;;5156062;27;20263;-51
2021/12/09 04:44:41;;;;;;;;;;;18.80;35.80;;;;;;5155973;27;19965;-50
2021/12/09 04:47:06;;;;;;;;;;;18.80;35.80;;;;;;5155349;27;19907;-50
2021/12/09 04:49:33;;;;;;;;;;;18.80;35.80;;;;;;5156130;27;19914;-49
2021/12/09 04:52:00;;;;;;;;;;;18.80;35.90;;;;;;5155870;27;20037;-54
2021/12/09 04:54:25;;;;;;;;;;;18.80;35.80;;;;;;5155882;27;19952;-54
2021/12/09 04:56:51;;;;;;;;;;;18.80;35.80;;;;;;5155967;27;19907;-51
2021/12/09 04:59:16;;;;;;;;;;;18.80;35.80;;;;;;5155482;27;20366;-51
2021/12/09 05:01:48;;;;;;;;;;;18.80;35.80;;;;;;5155600;27;19951;-52
2021/12/09 05:04:13;;;;;;;;;;;18.80;35.80;;;;;;5155588;27;20380;-50
2021/12/09 05:06:39;;;;;;;;;;;18.80;35.90;;;;;;5155626;27;19907;-52
2021/12/09 05:09:10;;;;;;;;;;;18.80;35.90;;;;;;5155740;27;19911;-55
2021/12/09 05:14:01;;;;;;;;;;;18.80;35.90;;;;;;5155350;27;20019;-56
2021/12/09 05:16:26;;;;;;;;;;;18.80;35.90;;;;;;5155214;27;20372;-54
2021/12/09 05:18:58;;;;;;;;;;;18.80;35.90;;;;;;5155421;27;20036;-54
2021/12/09 05:21:25;;;;;;;;;;;18.80;35.90;;;;;;5155566;27;19994;-54
2021/12/09 05:23:50;;;;;;;;;;;18.80;35.80;;;;;;5155422;27;19907;-51
2021/12/09 05:26:18;;;;;;;;;;;18.80;35.80;;;;;;5155316;27;20040;-50
2021/12/09 05:28:44;;;;;;;;;;;18.80;35.80;;;;;;5155505;27;20059;-55
2021/12/09 05:33:56;;;;;;;;;;;18.90;35.70;;;;;;5155528;27;19961;-51
2021/12/09 05:36:21;;;;;;;;;;;18.90;35.60;;;;;;5155404;27;19908;-55
2021/12/09 05:38:46;;;;;;;;;;;19.00;35.70;;;;;;5155179;27;19907;-54
2021/12/09 05:41:12;;;;;;;;;;;19.00;35.60;;;;;;5154985;27;20052;-50
2021/12/09 05:43:38;;;;;;;;;;;19.00;35.70;;;;;;5154978;27;19915;-50
2021/12/09 05:46:04;;;;;;;;;;;19.00;35.60;;;;;;5155170;27;19914;-53
2021/12/09 05:48:30;;;;;;;;;;;19.00;35.60;;;;;;5155135;27;20414;-54
2021/12/09 05:50:55;;;;;;;;;;;19.00;35.60;;;;;;5154861;27;19915;-50
2021/12/09 05:53:20;;;;;;;;;;;19.10;35.50;;;;;;5154915;27;19959;-50
2021/12/09 05:55:47;;;;;;;;;;;19.10;35.50;;;;;;5155176;27;19952;-53
2021/12/09 05:58:14;;;;;;;;;;;19.10;35.50;;;;;;5154703;27;20010;-55
2021/12/09 06:00:39;;;;;;;;;;;19.10;35.50;;;;;;5159504;27;20300;-56
2021/12/09 06:03:05;;;;;;;;;;;19.10;35.60;;;;;;5159358;27;19907;-53
2021/12/09 06:05:30;;;;;;;;;;;19.10;35.60;;;;;;5159045;27;19962;-51
2021/12/09 06:07:56;;;;;;;;;;;19.10;35.60;;;;;;5159253;27;19914;-50
2021/12/09 06:10:21;;;;;;;;;;;19.10;35.60;;;;;;5158968;27;19961;-55
2021/12/09 06:12:47;;;;;;;;;;;19.10;35.60;;;;;;5158909;27;20014;-54
2021/12/09 06:15:12;;;;;;;;;;;19.10;35.50;;;;;;5159046;27;20273;-53
2021/12/09 06:17:38;;;;;;;;;;;19.20;35.50;;;;;;5159036;27;19907;-51
2021/12/09 06:20:04;;;;;;;;;;;19.20;35.50;;;;;;5158957;27;19908;-55
2021/12/09 06:22:29;;;;;;;;;;;19.20;35.50;;;;;;5158596;27;20394;-56
2021/12/09 06:24:55;;;;;;;;;;;19.20;35.40;;;;;;5158528;27;19907;-53
2021/12/09 06:27:20;;;;;;;;;;;19.20;35.50;;;;;;5158871;27;19936;-54
2021/12/09 06:29:46;;;;;;;;;;;19.20;35.50;;;;;;5158835;27;20385;-57
2021/12/09 06:32:11;;;;;;;;;;;19.20;35.50;;;;;;5158384;27;20377;-56
2021/12/09 06:34:37;;;;;;;;;;;19.20;35.50;;;;;;5139864;27;20011;-52
2021/12/09 06:37:02;;;;;;;;;;;19.20;35.50;;;;;;5158197;27;19956;-51
2021/12/09 06:39:28;;;;;;;;;;;19.20;35.50;;;;;;5158346;27;19907;-56
2021/12/09 06:41:53;;;;;;;;;;;19.20;35.40;;;;;;5158319;27;19907;-55
2021/12/09 06:44:18;;;;;;;;;;;19.20;35.50;;;;;;5158190;27;19951;-52
2021/12/09 06:46:44;;;;;;;;;;;19.20;35.50;;;;;;5158120;27;19907;-53
2021/12/09 06:49:09;;;;;;;;;;;19.20;35.50;;;;;;5158293;27;19907;-55
2021/12/09 06:51:35;;;;;;;;;;;19.20;35.50;;;;;;5158211;27;19915;-56
2021/12/09 06:54:00;;;;;;;;;;;19.20;35.50;;;;;;5158125;27;19951;-56
2021/12/09 06:56:34;;;;;;;;;;;19.20;35.40;;;;;;5158014;27;19907;-53
2021/12/09 06:59:00;;;;;;;;;;;19.20;35.50;;;;;;5157830;27;20386;-54
2021/12/09 07:01:26;;;;;;;;;;;19.20;35.40;;;;;;5157872;27;19958;-51
2021/12/09 07:03:53;;;;;;;;;;;19.20;35.50;;;;;;5158213;27;19907;-52
2021/12/09 07:06:18;;;;;;;;;;;19.20;35.40;;;;;;5157860;27;19907;-51
2021/12/09 07:08:49;;;;;;;;;;;19.20;35.40;;;;;;5158089;27;19907;-56
2021/12/09 07:11:16;;;;;;;;;;;19.30;35.50;;;;;;5157461;27;19921;-54
2021/12/09 07:13:42;;;;;;;;;;;19.30;35.50;;;;;;5157722;27;19914;-50
2021/12/09 07:16:08;;;;;;;;;;;19.30;35.40;;;;;;5157884;27;19907;-55
2021/12/09 07:18:34;;;;;;;;;;;19.30;35.40;;;;;;5157549;27;20281;-54
2021/12/09 07:20:59;;;;;;;;;;;19.20;35.50;;;;;;5157429;27;20045;-52
2021/12/09 07:23:25;;;;;;;;;;;19.30;35.40;;;;;;5157624;27;19914;-54
2021/12/09 07:25:50;;;;;;;;;;;19.30;35.40;;;;;;5157450;27;20351;-55
2021/12/09 07:28:17;;;;;;;;;;;19.30;35.40;;;;;;5157562;27;19907;-56
2021/12/09 07:30:42;;;;;;;;;;;19.30;35.40;;;;;;5156934;27;20350;-51
2021/12/09 07:33:08;;;;;;;;;;;19.30;35.40;;;;;;5157372;27;20073;-54
2021/12/09 07:35:33;;;;;;;;;;;19.30;35.40;;;;;;5157419;27;19983;-55
2021/12/09 07:38:00;;;;;;;;;;;19.30;35.30;;;;;;5157260;27;19932;-53
2021/12/09 07:40:25;;;;;;;;;;;19.30;35.40;;;;;;5157331;27;19914;-51
2021/12/09 07:42:51;;;;;;;;;;;19.30;35.40;;;;;;5157445;27;19907;-54
2021/12/09 07:45:17;;;;;;;;;;;19.30;35.40;;;;;;5157378;27;19907;-55
2021/12/09 07:47:44;;;;;;;;;;;19.30;35.40;;;;;;5157015;27;20397;-54
2021/12/09 07:50:13;;;;;;;;;;;19.30;35.40;;;;;;5156898;27;20362;-53
2021/12/09 07:52:40;;;;;;;;;;;19.30;35.40;;;;;;5157356;27;19907;-55
2021/12/09 07:55:05;;;;;;;;;;;19.30;35.40;;;;;;5157246;27;19907;-55
2021/12/09 07:57:33;;;;;;;;;;;19.30;35.30;;;;;;5156869;27;20399;-56
2021/12/09 07:59:59;;;;;;;;;;;19.30;35.30;;;;;;5156581;27;20010;-53
2021/12/09 08:02:24;;;;;;;;;;;19.30;35.30;;;;;;5156498;27;19911;-56
2021/12/09 08:04:50;;;;;;;;;;;19.30;35.40;;;;;;5154392;27;20410;-56
2021/12/09 08:07:15;;;;;;;;;;;19.30;35.50;;;;;;5153484;27;19907;-56
2021/12/09 08:09:41;;;;;;;;;;;19.30;35.30;;;;;;5156056;27;19953;-58
2021/12/09 08:12:06;;;;;;;;;;;19.30;35.50;;;;;;5155871;27;19919;-58
2021/12/09 08:14:32;;;;;;;;;;;19.30;35.40;;;;;;5151136;27;19922;-57
2021/12/09 08:17:11;;;;;;;;;;;19.30;35.50;;;;;;5150917;27;19959;-56
2021/12/09 08:19:37;;;;;;;;;;;19.30;35.40;;;;;;5144839;27;19938;-58
2021/12/09 08:22:02;;;;;;;;;;;19.40;35.50;;;;;;5147236;27;20454;-50
2021/12/09 08:24:28;;;;;;;;;;;19.40;35.50;;;;;;5153696;27;20014;-58
2021/12/09 08:26:53;;;;;;;;;;;19.30;35.60;;;;;;5155827;27;19914;-52
2021/12/09 08:29:19;;;;;;;;;;;19.40;35.50;;;;;;5155082;27;19939;-52
2021/12/09 08:31:44;;;;;;;;;;;19.40;35.60;;;;;;5155457;27;19915;-53
2021/12/09 08:34:10;;;;;;;;;;;19.40;35.60;;;;;;5145180;27;19911;-55
2021/12/09 08:36:35;;;;;;;;;;;19.40;35.60;;;;;;5134323;27;19908;-56
2021/12/09 08:39:01;;;;;;;;;;;19.40;35.70;;;;;;5148134;27;19907;-55
2021/12/09 08:41:26;;;;;;;;;;;19.40;35.70;;;;;;5155219;27;20275;-55
2021/12/09 08:43:52;;;;;;;;;;;19.40;35.70;;;;;;5136250;27;19950;-51
2021/12/09 08:46:17;;;;;;;;;;;19.50;35.60;;;;;;5134191;27;20319;-55
2021/12/09 08:48:43;;;;;;;;;;;19.40;35.70;;;;;;5134136;27;19912;-56
2021/12/09 08:51:09;;;;;;;;;;;19.40;35.70;;;;;;5134471;27;19915;-53
2021/12/09 08:53:34;;;;;;;;;;;19.50;35.70;;;;;;5134292;27;19908;-56
2021/12/09 08:56:00;;;;;;;;;;;19.40;35.80;;;;;;5115692;27;19952;-58
2021/12/09 08:58:27;;;;;;;;;;;19.40;35.70;;;;;;5133883;27;20277;-60
2021/12/09 09:00:54;;;;;;;;;;;19.40;35.80;;;;;;5133751;27;20196;-58
2021/12/09 09:03:19;;;;;;;;;;;19.40;35.80;;;;;;5134007;27;19907;-58
2021/12/09 09:05:45;;;;;;;;;;;19.40;35.80;;;;;;5133611;27;20255;-58
2021/12/09 09:08:10;;;;;;;;;;;19.50;35.80;;;;;;5134321;27;19911;-58
2021/12/09 09:10:38;;;;;;;;;;;19.50;35.80;;;;;;5148593;27;20367;-55
2021/12/09 09:13:04;;;;;;;;;;;19.30;34.60;;;;;;5127333;27;20290;-57
2021/12/09 09:15:31;;;;;;;;;;;18.10;35.60;;;;;;5133781;27;19907;-57
2021/12/09 09:17:57;;;;;;;;;;;18.10;36.00;;;;;;5134214;27;19914;-56
2021/12/09 09:20:24;;;;;;;;;;;18.60;35.60;;;;;;5131855;27;20317;-56
2021/12/09 09:22:49;;;;;;;;;;;18.90;35.30;;;;;;5131704;27;19918;-55
2021/12/09 09:25:17;;;;;;;;;;;19.10;35.30;;;;;;5131558;27;19990;-56
2021/12/09 09:27:43;;;;;;;;;;;19.20;35.30;;;;;;5132262;27;19912;-56
2021/12/09 09:30:13;;;;;;;;;;;19.30;35.30;;;;;;5138006;27;19970;-56
2021/12/09 09:32:39;;;;;;;;;;;19.40;35.40;;;;;;5151246;27;19911;-57
2021/12/09 09:35:04;;;;;;;;;;;19.40;35.50;;;;;;5135601;27;19918;-57
2021/12/09 09:37:30;;;;;;;;;;;19.40;35.40;;;;;;5139622;27;19911;-56
2021/12/09 09:39:55;;;;;;;;;;;19.40;35.50;;;;;;5142188;27;19911;-56
2021/12/09 09:45:19;;;;;;;;;;;19.50;35.50;;;;;;5104648;28;19922;-57
2021/12/09 09:47:44;;;;;;;;;;;19.50;35.50;;;;;;5136813;27;19911;-57
2021/12/09 09:50:11;;;;;;;;;;;19.50;35.50;;;;;;5133187;27;19919;-56
2021/12/09 09:52:36;;;;;;;;;;;19.50;35.50;;;;;;5138664;27;20289;-56
2021/12/09 09:55:05;;;;;;;;;;;19.50;35.50;;;;;;5145505;27;20362;-56
2021/12/09 09:57:31;;;;;;;;;;;19.50;35.60;;;;;;5134417;27;19922;-55
2021/12/09 09:59:56;;;;;;;;;;;19.50;35.60;;;;;;5138302;27;20006;-57
2021/12/09 10:02:22;;;;;;;;;;;19.50;35.60;;;;;;5134239;27;19916;-56
2021/12/09 10:04:49;;;;;;;;;;;19.50;35.60;;;;;;5132874;28;19929;-56
2021/12/09 10:07:16;;;;;;;;;;;19.50;35.70;;;;;;5133868;27;19950;-56
2021/12/09 10:09:42;;;;;;;;;;;19.50;35.70;;;;;;5150873;27;19911;-53
2021/12/09 10:12:08;;;;;;;;;;;19.60;35.70;;;;;;5153378;27;19926;-56
2021/12/09 10:14:35;;;;;;;;;;;19.60;35.70;;;;;;5151585;27;19911;-56
2021/12/09 10:17:05;;;;;;;;;;;19.60;35.80;;;;;;5143618;27;20425;-58
2021/12/09 10:19:31;;;;;;;;;;;19.60;35.80;;;;;;5133470;28;19918;-57
2021/12/09 10:22:23;;;;;;;;;;;19.60;35.90;;;;;;5133224;27;19950;-57
2021/12/09 10:24:50;;;;;;;;;;;19.60;35.90;;;;;;5127222;27;19912;-57
2021/12/09 10:27:50;;;;;;;;;;;19.60;36.00;;;;;;5140804;27;20184;-56
2021/12/09 10:30:11;;;;;;;;;;;19.70;36.10;;;;;;5145980;27;19975;-55
2021/12/09 10:32:37;;;;;;;;;;;19.60;36.10;;;;;;5153829;27;19911;-55
2021/12/09 10:35:15;;;;;;;;;;;19.70;36.20;;;;;;5139936;27;20005;-55
2021/12/09 10:37:42;;;;;;;;;;;19.70;36.20;;;;;;5138440;27;20415;-56
2021/12/09 10:40:12;;;;;;;;;;;19.60;36.20;;;;;;5140266;27;20009;-54
2021/12/09 10:42:43;;;;;;;;;;;19.60;36.20;;;;;;5138643;27;20290;-55
2021/12/09 10:45:10;;;;;;;;;;;19.70;36.30;;;;;;5144472;27;20281;-57
2021/12/09 10:50:24;;;;;;;;;;;19.70;36.30;;;;;;5152658;27;19998;-52
2021/12/09 10:52:53;;;;;;;;;;;19.70;36.30;;;;;;5140168;27;19911;-51
2021/12/09 10:55:23;;;;;;;;;;;19.60;36.30;;;;;;5145093;27;20010;-53
2021/12/09 10:57:54;;;;;;;;;;;19.70;36.30;;;;;;5146433;27;19950;-53
2021/12/09 11:00:31;;;;;;;;;;;19.70;36.40;;;;;;5143834;27;19995;-56
2021/12/09 11:03:08;;;;;;;;;;;19.70;36.30;;;;;;5155804;27;19914;-55
2021/12/09 11:05:36;;;;;;;;;;;19.70;36.40;;;;;;5155746;27;21300;-52
2021/12/09 11:08:16;;;;;;;;;;;19.60;36.40;;;;;;5156891;27;19914;-55
2021/12/09 11:10:47;;;;;;;;;;;19.70;36.40;;;;;;5156196;27;19915;-60
2021/12/09 11:13:15;;;;;;;;;;;19.70;36.40;;;;;;5157055;27;19907;-58
2021/12/09 11:15:45;;;;;;;;;;;19.70;36.30;;;;;;5156080;27;20415;-58
2021/12/09 11:18:29;;;;;;;;;;;19.70;36.40;;;;;;5145252;27;20002;-57
2021/12/09 11:20:55;;;;;;;;;;;19.70;36.40;;;;;;5137706;27;20445;-58
2021/12/09 11:23:29;;;;;;;;;;;19.70;36.40;;;;;;5139273;27;20010;-59
2021/12/09 11:25:58;;;;;;;;;;;19.70;36.30;;;;;;5141925;27;19911;-59
2021/12/09 11:28:26;;;;;;;;;;;19.70;36.40;;;;;;5147695;27;19918;-57
2021/12/09 11:31:12;;;;;;;;;;;19.70;36.40;;;;;;5136578;27;19916;-58
2021/12/09 11:33:42;;;;;;;;;;;19.70;36.40;;;;;;5141413;27;19911;-57
2021/12/09 11:36:15;;;;;;;;;;;19.70;36.50;;;;;;5136737;27;19927;-57
2021/12/09 11:39:05;;;;;;;;;;;19.70;36.50;;;;;;5139487;27;19918;-57
2021/12/09 11:41:33;;;;;;;;;;;19.70;36.50;;;;;;5152211;27;20014;-56
2021/12/09 11:43:59;;;;;;;;;;;19.70;36.50;;;;;;5143433;27;20337;-59
2021/12/09 11:46:24;;;;;;;;;;;19.70;36.60;;;;;;5150506;27;19956;-53
2021/12/09 11:48:50;;;;;;;;;;;19.70;36.50;;;;;;5141401;27;19915;-57
2021/12/09 11:51:15;;;;;;;;;;;19.70;36.60;;;;;;5136777;27;20022;-58
2021/12/09 11:53:44;;;;;;;;;;;19.70;36.60;;;;;;5135692;27;19965;-59
2021/12/09 11:56:59;;;;;;;;;;;19.70;36.60;;;;;;5134208;27;20006;-59
2021/12/09 11:59:24;;;;;;;;;;;19.70;36.60;;;;;;5116561;27;20324;-57
2021/12/09 12:07:53;;;;;;;;;;;19.80;36.50;;;;;;5145819;27;20018;-56
2021/12/09 12:13:31;;;;;;;;;;;19.70;36.60;;;;;;5136656;27;20462;-56
2021/12/09 12:15:59;;;;;;;;;;;19.80;36.60;;;;;;5135330;27;20005;-58
2021/12/09 12:26:37;;;;;;;;;;;19.70;36.70;;;;;;5151280;27;19958;-51
2021/12/09 12:35:02;;;;;;;;;;;19.80;36.70;;;;;;5154676;27;20402;-57
2021/12/09 12:40:38;;;;;;;;;;;19.80;36.60;;;;;;5113704;27;19911;-53
2021/12/09 12:43:09;;;;;;;;;;;19.80;36.70;;;;;;5133266;27;19908;-55
2021/12/09 12:45:51;;;;;;;;;;;19.70;36.70;;;;;;5143356;27;19914;-55
2021/12/09 12:51:20;;;;;;;;;;;19.70;36.80;;;;;;5150785;27;19923;-54
2021/12/09 12:53:48;;;;;;;;;;;19.80;36.70;;;;;;5146804;27;19998;-56
2021/12/09 12:56:16;;;;;;;;;;;19.70;36.80;;;;;;5135003;27;19921;-53
2021/12/09 12:59:01;;;;;;;;;;;19.70;36.80;;;;;;5134394;27;20378;-57
2021/12/09 13:01:26;;;;;;;;;;;19.70;36.70;;;;;;5134600;27;19908;-54
2021/12/09 13:03:56;;;;;;;;;;;19.70;36.80;;;;;;5154629;27;19911;-54
2021/12/09 13:06:39;;;;;;;;;;;19.70;36.80;;;;;;5152580;27;19907;-54
2021/12/09 13:09:28;;;;;;;;;;;19.70;36.80;;;;;;5114332;27;19915;-55
2021/12/09 13:12:01;;;;;;;;;;;19.80;36.60;;;;;;5140869;27;19926;-56
2021/12/09 13:14:31;;;;;;;;;;;19.80;36.70;;;;;;5135799;27;20304;-58
2021/12/09 13:19:37;;;;;;;;;;;19.70;37.00;;;;;;5133630;27;19908;-53
2021/12/09 13:22:17;;;;;;;;;;;19.80;36.80;;;;;;5134174;27;19938;-54
2021/12/09 13:24:57;;;;;;;;;;;19.70;37.30;;;;;;5139684;27;19940;-54
2021/12/09 13:27:40;;;;;;;;;;;19.80;37.40;;;;;;5155468;27;19911;-52
2021/12/09 13:46:57;;;;;;;;;;;19.80;37.30;;;;;;5127502;27;19918;-50
2021/12/09 13:54:58;;;;;;;;;;;19.80;37.30;;;;;;5142279;27;19918;-57
2021/12/09 13:57:30;;;;;;;;;;;19.80;37.40;;;;;;5148249;27;19916;-57
2021/12/09 13:59:56;;;;;;;;;;;19.80;37.30;;;;;;5135063;27;19956;-57
2021/12/09 14:02:23;;;;;;;;;;;19.80;37.30;;;;;;5132245;28;19912;-57
2021/12/09 14:04:48;;;;;;;;;;;19.80;37.30;;;;;;5131917;28;19907;-57
2021/12/09 14:07:22;;;;;;;;;;;19.80;37.40;;;;;;5141118;27;19907;-57
2021/12/09 14:10:02;;;;;;;;;;;19.80;37.50;;;;;;5144416;27;19964;-57
2021/12/09 14:12:31;;;;;;;;;;;19.80;37.50;;;;;;5142227;27;19922;-57
2021/12/09 14:15:05;;;;;;;;;;;19.80;37.50;;;;;;5146296;27;20422;-56
2021/12/09 14:17:30;;;;;;;;;;;19.80;37.40;;;;;;5154785;27;19908;-57
2021/12/09 14:20:01;;;;;;;;;;;19.90;37.50;;;;;;5153575;27;20272;-57
2021/12/09 14:22:35;;;;;;;;;;;19.80;37.40;;;;;;5150978;27;19966;-52
2021/12/09 14:25:03;;;;;;;;;;;19.80;37.30;;;;;;5139212;27;20373;-55
2021/12/09 14:27:29;;;;;;;;;;;19.80;37.30;;;;;;5137244;27;19911;-56
2021/12/09 14:29:55;;;;;;;;;;;19.90;37.40;;;;;;5141494;27;19998;-54
2021/12/09 14:32:23;;;;;;;;;;;19.90;37.40;;;;;;5139307;27;20017;-57
2021/12/09 14:34:50;;;;;;;;;;;19.80;37.30;;;;;;5137468;27;19908;-55
2021/12/09 14:37:17;;;;;;;;;;;19.80;37.40;;;;;;5143516;27;19919;-56
2021/12/09 14:39:42;;;;;;;;;;;19.80;37.40;;;;;;5137442;27;19938;-55
2021/12/09 14:42:11;;;;;;;;;;;19.90;37.30;;;;;;5137791;27;19911;-55
2021/12/09 14:44:37;;;;;;;;;;;19.80;37.30;;;;;;5140670;27;19912;-56
2021/12/09 14:47:07;;;;;;;;;;;19.80;37.40;;;;;;5148068;27;19907;-52
2021/12/09 14:49:39;;;;;;;;;;;19.80;37.40;;;;;;5137086;27;19937;-56
2021/12/09 14:52:05;;;;;;;;;;;19.80;37.40;;;;;;5148651;27;19915;-56
2021/12/09 14:54:31;;;;;;;;;;;19.90;37.30;;;;;;5129963;27;20013;-57
2021/12/09 14:57:07;;;;;;;;;;;19.90;37.30;;;;;;5149866;27;20548;-56
2021/12/09 14:59:35;;;;;;;;;;;19.80;37.30;;;;;;5145618;27;19923;-55
2021/12/09 15:02:06;;;;;;;;;;;19.80;37.40;;;;;;5137905;27;20227;-53
2021/12/09 15:04:34;;;;;;;;;;;19.80;37.40;;;;;;5149270;27;20410;-56
2021/12/09 15:07:02;;;;;;;;;;;19.80;37.40;;;;;;5148556;27;19918;-56
2021/12/09 15:09:28;;;;;;;;;;;19.80;37.40;;;;;;5157510;27;20319;-56
2021/12/09 15:11:55;;;;;;;;;;;19.80;37.40;;;;;;5156382;27;19970;-53
2021/12/09 15:14:35;;;;;;;;;;;19.80;37.40;;;;;;5156854;27;19907;-51
2021/12/09 15:17:08;;;;;;;;;;;19.80;37.40;;;;;;5155843;27;19917;-50
2021/12/09 15:19:35;;;;;;;;;;;19.80;37.40;;;;;;5156827;27;19907;-53
2021/12/09 15:22:12;;;;;;;;;;;19.80;37.50;;;;;;5156849;27;19907;-50
2021/12/09 15:25:01;;;;;;;;;;;19.80;37.70;;;;;;5156692;27;20006;-51